Time;durP1;ratioP1;P1;durP2;ratioP2;P2;SDS_P1;SDS_P2;PMS_P1;PMS_P2;Temp;Humidity;BMP_temperature;BMP_pressure;BME280_temperature;BME280_humidity;BME280_pressure;Samples;Min_cycle;Max_cycle;Signal;HPM_P1;HPM_P2
2023/10/24 00:00:37;;;;;;;54.92;17.48;;;;;;;9.75;nan;100327.88;5032940;28;20465;-77
2023/10/24 00:03:02;;;;;;;48.60;17.63;;;;;;;9.75;nan;100320.75;5032803;28;20021;-78
2023/10/24 00:05:28;;;;;;;46.90;16.60;;;;;;;9.76;nan;100321.59;5032841;28;20534;-77
2023/10/24 00:07:54;;;;;;;38.33;15.98;;;;;;;9.76;nan;100314.44;5032692;28;20366;-80
2023/10/24 00:10:20;;;;;;;36.85;14.68;;;;;;;9.77;nan;100310.00;5033250;28;20412;-77
2023/10/24 00:12:45;;;;;;;47.63;15.23;;;;;;;9.78;nan;100299.22;5032775;28;20037;-77
2023/10/24 00:15:11;;;;;;;37.30;15.07;;;;;;;9.78;nan;100295.69;5033169;28;20032;-79
2023/10/24 00:17:36;;;;;;;31.40;14.07;;;;;;;9.79;nan;100294.72;5014972;28;20022;-77
2023/10/24 00:20:01;;;;;;;34.90;14.05;;;;;;;9.79;nan;100292.06;5032838;28;20073;-78
2023/10/24 00:22:27;;;;;;;37.05;14.02;;;;;;;9.79;nan;100290.28;5032695;28;20114;-77
2023/10/24 00:24:52;;;;;;;31.38;14.57;;;;;;;9.80;nan;100280.47;5032303;28;20036;-77
2023/10/24 00:27:17;;;;;;;33.72;14.45;;;;;;;9.81;nan;100271.53;5032389;28;20209;-77
2023/10/24 00:29:43;;;;;;;34.03;15.18;;;;;;;9.80;nan;100270.66;5032617;28;20307;-76
2023/10/24 00:32:08;;;;;;;34.40;13.65;;;;;;;9.82;nan;100275.81;5032591;28;20037;-77
2023/10/24 00:34:33;;;;;;;27.33;14.30;;;;;;;9.81;nan;100271.53;5032552;28;20029;-77
2023/10/24 00:36:59;;;;;;;31.17;14.25;;;;;;;9.81;nan;100267.03;5014532;28;20032;-77
2023/10/24 00:39:24;;;;;;;30.27;14.93;;;;;;;9.81;nan;100264.38;5031863;28;20053;-77
2023/10/24 00:41:49;;;;;;;36.28;15.30;;;;;;;9.84;nan;100272.03;5032198;28;20025;-77
2023/10/24 00:44:15;;;;;;;36.28;14.43;;;;;;;9.85;nan;100264.91;5032295;28;20049;-77
2023/10/24 00:46:41;;;;;;;29.85;14.73;;;;;;;9.87;nan;100260.28;5032328;28;20195;-78
2023/10/24 00:49:07;;;;;;;30.20;15.00;;;;;;;9.88;nan;100262.81;5032461;28;20055;-77
2023/10/24 00:51:33;;;;;;;32.40;15.38;;;;;;;9.88;nan;100262.81;5032591;28;20530;-77
2023/10/24 00:54:01;;;;;;;31.27;14.60;;;;;;;9.91;nan;100259.00;5032497;28;20143;-76
2023/10/24 00:56:29;;;;;;;32.13;14.95;;;;;;;9.94;nan;100252.56;5032398;28;20113;-77
2023/10/24 00:58:55;;;;;;;29.85;15.45;;;;;;;9.96;nan;100250.59;5032444;28;20434;-77
2023/10/24 01:01:22;;;;;;;34.17;15.80;;;;;;;9.95;nan;100249.75;5032688;28;20060;-77
2023/10/24 01:03:48;;;;;;;33.28;16.52;;;;;;;9.97;nan;100252.25;5032826;28;20080;-77
2023/10/24 01:06:15;;;;;;;40.63;17.05;;;;;;;9.97;nan;100255.75;5014780;28;20148;-76
2023/10/24 01:08:41;;;;;;;40.10;17.30;;;;;;;9.99;nan;100247.63;5014618;28;20025;-77
2023/10/24 01:11:06;;;;;;;40.67;18.27;;;;;;;10.00;nan;100249.28;5032733;28;20094;-77
2023/10/24 01:13:32;;;;;;;44.92;18.75;;;;;;;10.00;nan;100246.63;5032688;28;20094;-76
2023/10/24 01:15:57;;;;;;;45.33;18.63;;;;;;;10.02;nan;100250.81;5031919;28;20032;-76
2023/10/24 01:18:23;;;;;;;38.40;18.60;;;;;;;10.02;nan;100250.00;5031939;28;20096;-77
2023/10/24 01:20:48;;;;;;;43.25;21.10;;;;;;;10.01;nan;100243.81;5032495;28;20033;-77
2023/10/24 01:23:14;;;;;;;46.85;20.88;;;;;;;10.02;nan;100237.53;5031993;28;20500;-77
2023/10/24 01:25:41;;;;;;;45.83;21.05;;;;;;;10.02;nan;100242.84;5032270;28;20480;-77
2023/10/24 01:28:08;;;;;;;46.58;20.85;;;;;;;10.03;nan;100241.88;5031709;28;20033;-77
2023/10/24 01:30:35;;;;;;;52.42;22.52;;;;;;;10.03;nan;100244.53;5031581;28;20103;-80
2023/10/24 01:33:01;;;;;;;55.72;23.73;;;;;;;10.04;nan;100242.69;5032180;28;20028;-77
2023/10/24 01:35:27;;;;;;;53.13;22.75;;;;;;;10.04;nan;100242.69;5031893;28;20101;-77
2023/10/24 01:37:52;;;;;;;63.05;24.27;;;;;;;10.03;nan;100241.88;5031750;28;20021;-77
2023/10/24 01:40:18;;;;;;;57.75;24.17;;;;;;;10.04;nan;100240.03;5031439;28;20108;-77
2023/10/24 01:42:43;;;;;;;68.82;24.45;;;;;;;10.05;nan;100241.72;5014248;28;20041;-77
2023/10/24 01:45:09;;;;;;;55.65;23.38;;;;;;;10.07;nan;100239.72;5031652;28;20473;-78
2023/10/24 01:47:34;;;;;;;56.47;23.17;;;;;;;10.06;nan;100241.56;5031926;28;20065;-76
2023/10/24 01:50:00;;;;;;;58.58;23.58;;;;;;;10.09;nan;100234.28;5031870;28;20036;-76
2023/10/24 01:52:25;;;;;;;52.42;22.10;;;;;;;10.07;nan;100232.59;5034995;28;20041;-76
2023/10/24 01:54:50;;;;;;;54.53;22.58;;;;;;;10.09;nan;100235.13;5017551;28;20032;-76
2023/10/24 01:57:16;;;;;;;61.15;23.20;;;;;;;10.10;nan;100234.13;5035636;28;20076;-76
2023/10/24 01:59:42;;;;;;;53.47;22.75;;;;;;;10.11;nan;100235.81;5035586;28;20030;-76
2023/10/24 02:02:07;;;;;;;49.88;22.55;;;;;;;10.09;nan;100224.50;5035445;28;20030;-77
2023/10/24 02:04:33;;;;;;;70.30;23.30;;;;;;;10.10;nan;100236.78;5035320;28;20525;-76
2023/10/24 02:06:58;;;;;;;55.95;22.27;;;;;;;10.11;nan;100229.66;5034871;28;20292;-77
2023/10/24 02:09:23;;;;;;;53.88;22.55;;;;;;;10.08;nan;100228.13;5035313;28;20033;-77
2023/10/24 02:11:49;;;;;;;60.35;23.27;;;;;;;10.06;nan;100228.28;5035463;28;20025;-77
2023/10/24 02:14:14;;;;;;;66.00;24.02;;;;;;;10.06;nan;100227.41;5034999;28;20029;-78
2023/10/24 02:16:39;;;;;;;56.33;23.70;;;;;;;10.06;nan;100222.09;5034934;28;20033;-79
2023/10/24 02:19:05;;;;;;;59.83;23.15;;;;;;;10.05;nan;100223.13;5032238;28;20445;-77
2023/10/24 02:21:30;;;;;;;61.90;24.13;;;;;;;10.04;nan;100227.56;5053729;28;20025;-78
2023/10/24 02:23:57;;;;;;;71.97;25.02;;;;;;;10.04;nan;100226.75;5054789;28;20029;-76
2023/10/24 02:26:22;;;;;;;78.00;27.52;;;;;;;10.03;nan;100219.75;5054734;28;20465;-77
2023/10/24 02:28:47;;;;;;;80.05;25.65;;;;;;;10.00;nan;100214.75;5054636;28;20032;-78
2023/10/24 02:31:14;;;;;;;84.80;26.48;;;;;;;10.00;nan;100217.41;5053294;28;20025;-77
2023/10/24 02:33:40;;;;;;;75.88;25.17;;;;;;;10.00;nan;100222.72;5053913;28;20088;-77
2023/10/24 02:36:10;;;;;;;82.88;25.60;;;;;;;9.99;nan;100223.72;5054587;28;20033;-76
2023/10/24 02:38:36;;;;;;;71.45;23.75;;;;;;;9.98;nan;100214.06;5052962;28;20094;-76
2023/10/24 02:41:02;;;;;;;77.25;25.48;;;;;;;9.98;nan;100208.75;5054639;28;20021;-77
2023/10/24 02:43:28;;;;;;;75.93;24.63;;;;;;;9.97;nan;100205.28;5054592;28;20036;-78
2023/10/24 02:45:54;;;;;;;75.63;25.13;;;;;;;9.98;nan;100211.41;5052943;28;20025;-78
2023/10/24 02:48:19;;;;;;;78.90;23.58;;;;;;;9.95;nan;100207.22;5054370;28;20047;-80
2023/10/24 02:50:51;;;;;;;69.68;23.88;;;;;;;9.95;nan;100206.41;5054054;28;20191;-78
2023/10/24 02:53:16;;;;;;;80.10;23.27;;;;;;;9.92;nan;100204.88;5054434;28;20116;-79
2023/10/24 02:55:41;;;;;;;72.75;24.05;;;;;;;9.90;nan;100206.84;5052641;28;20060;-77
2023/10/24 02:58:07;;;;;;;71.00;24.02;;;;;;;9.89;nan;100211.31;5053108;28;20036;-78
2023/10/24 03:00:32;;;;;;;75.90;24.35;;;;;;;9.92;nan;100210.19;5054148;28;20024;-79
2023/10/24 03:02:57;;;;;;;70.28;23.55;;;;;;;9.92;nan;100217.31;5053411;28;20029;-79
2023/10/24 03:05:23;;;;;;;81.40;25.90;;;;;;;9.90;nan;100212.16;5052470;28;20025;-79
2023/10/24 03:07:48;;;;;;;74.35;23.95;;;;;;;9.88;nan;100217.63;5052652;28;20032;-79
2023/10/24 03:10:13;;;;;;;76.78;25.38;;;;;;;9.89;nan;100213.97;5053033;28;20033;-79
2023/10/24 03:12:39;;;;;;;76.50;25.20;;;;;;;9.88;nan;100214.97;5053700;28;20344;-79
2023/10/24 03:15:05;;;;;;;78.70;25.48;;;;;;;9.89;nan;100215.81;5053796;28;20350;-79
2023/10/24 03:17:30;;;;;;;79.55;25.40;;;;;;;9.88;nan;100214.13;5053860;28;20025;-80
2023/10/24 03:19:56;;;;;;;81.80;26.17;;;;;;;9.88;nan;100217.63;5052302;28;20060;-79
2023/10/24 03:22:36;;;;;;;69.88;24.85;;;;;;;9.89;nan;100227.25;5020235;28;20041;-79
2023/10/24 03:25:02;;;;;;;86.97;25.98;;;;;;;9.91;nan;100226.28;5053401;28;20373;-78
2023/10/24 03:27:27;;;;;;;81.10;26.58;;;;;;;9.91;nan;100226.28;5053805;28;20045;-80
2023/10/24 03:29:53;;;;;;;80.20;27.05;;;;;;;9.92;nan;100223.47;5053712;28;20029;-79
2023/10/24 03:32:18;;;;;;;71.82;26.15;;;;;;;9.91;nan;100224.44;5052235;28;20373;-77
2023/10/24 03:34:43;;;;;;;89.05;27.70;;;;;;;9.90;nan;100212.16;5053215;28;20079;-78
2023/10/24 03:37:09;;;;;;;84.07;27.40;;;;;;;9.86;nan;100216.94;5052989;28;20418;-78
2023/10/24 03:39:34;;;;;;;87.18;27.70;;;;;;;9.87;nan;100217.78;5052976;28;20043;-79
2023/10/24 03:42:00;;;;;;;88.75;27.75;;;;;;;9.87;nan;100225.75;5053187;28;20480;-79
2023/10/24 03:44:25;;;;;;;86.15;28.50;;;;;;;9.87;nan;100228.41;5053271;28;20025;-78
2023/10/24 03:46:51;;;;;;;90.22;28.08;;;;;;;9.86;nan;100219.59;5053190;28;20052;-78
2023/10/24 03:49:16;;;;;;;87.85;27.20;;;;;;;9.87;nan;100223.91;5051860;28;20032;-78
2023/10/24 03:51:42;;;;;;;88.60;27.13;;;;;;;9.87;nan;100220.44;5053016;28;20051;-77
2023/10/24 03:54:08;;;;;;;83.05;27.70;;;;;;;9.86;nan;100219.59;5051669;28;20116;-79
2023/10/24 03:56:33;;;;;;;92.78;29.00;;;;;;;9.86;nan;100227.56;5051608;28;20104;-77
2023/10/24 03:58:59;;;;;;;88.93;28.42;;;;;;;9.87;nan;100225.75;5053208;28;20129;-78
2023/10/24 04:01:24;;;;;;;83.00;27.40;;;;;;;9.85;nan;100225.91;5053068;28;20029;-78
2023/10/24 04:03:50;;;;;;;86.57;28.25;;;;;;;9.87;nan;100228.41;5052890;28;20520;-78
2023/10/24 04:06:15;;;;;;;92.35;28.80;;;;;;;9.86;nan;100229.38;5053241;28;20064;-79
2023/10/24 04:08:41;;;;;;;93.55;30.90;;;;;;;9.87;nan;100228.41;5052797;28;20098;-80
2023/10/24 04:11:16;;;;;;;90.13;28.50;;;;;;;9.85;nan;100228.56;5052757;28;20041;-79
2023/10/24 04:13:45;;;;;;;92.70;29.38;;;;;;;9.85;nan;100233.03;5052379;28;20461;-79
2023/10/24 04:16:12;;;;;;;93.70;30.52;;;;;;;9.87;nan;100221.25;5052932;28;20060;-80
2023/10/24 04:18:41;;;;;;;94.85;29.33;;;;;;;9.88;nan;100228.25;5049579;28;20449;-78
2023/10/24 04:21:06;;;;;;;91.47;29.75;;;;;;;9.86;nan;100229.38;5032615;28;20079;-79
2023/10/24 04:23:32;;;;;;;82.75;27.20;;;;;;;9.85;nan;100228.56;4998083;28;20033;-79
2023/10/24 04:25:57;;;;;;;80.15;28.60;;;;;;;9.85;nan;100225.03;5015012;28;20030;-78
2023/10/24 04:28:23;;;;;;;83.85;28.75;;;;;;;9.83;nan;100225.19;5014965;28;20457;-79
2023/10/24 04:30:51;;;;;;;75.65;26.40;;;;;;;9.84;nan;100212.78;5032279;28;20436;-78
2023/10/24 04:33:16;;;;;;;53.40;23.20;;;;;;;9.79;nan;100207.91;5032611;28;20056;-80
2023/10/24 04:35:45;;;;;;;64.35;26.38;;;;;;;9.79;nan;100210.56;5032666;28;20112;-79
2023/10/24 04:38:11;;;;;;;65.18;26.00;;;;;;;9.75;nan;100206.53;5014563;28;20476;-80
2023/10/24 04:40:40;;;;;;;69.25;24.63;;;;;;;9.80;nan;100203.41;5032068;28;20037;-81
2023/10/24 04:43:06;;;;;;;60.63;24.50;;;;;;;9.77;nan;100199.22;5032696;28;20224;-82
2023/10/24 04:45:32;;;;;;;65.68;26.08;;;;;;;9.79;nan;100199.94;5032220;28;20147;-81
2023/10/24 04:48:00;;;;;;;65.60;25.83;;;;;;;9.78;nan;100192.09;5031977;28;20529;-81
2023/10/24 04:50:26;;;;;;;67.13;26.60;;;;;;;9.75;nan;100190.59;5014095;28;20041;-80
2023/10/24 04:52:53;;;;;;;70.75;26.30;;;;;;;9.74;nan;100175.63;5032863;28;20037;-80
2023/10/24 04:55:19;;;;;;;69.38;26.55;;;;;;;9.75;nan;100192.38;5032206;28;20079;-79
2023/10/24 04:57:44;;;;;;;73.63;26.30;;;;;;;9.73;nan;100194.38;5032226;28;20034;-78
2023/10/24 05:00:13;;;;;;;65.35;26.25;;;;;;;9.73;nan;100189.06;5032332;28;20021;-80
2023/10/24 05:02:40;;;;;;;70.50;25.85;;;;;;;9.72;nan;100188.22;5032053;28;20040;-79
2023/10/24 05:05:06;;;;;;;68.88;25.27;;;;;;;9.71;nan;100192.69;5031958;28;20044;-80
2023/10/24 05:07:31;;;;;;;80.85;26.95;;;;;;;9.72;nan;100196.19;5014457;28;20057;-80
2023/10/24 05:09:57;;;;;;;85.97;27.33;;;;;;;9.70;nan;100187.53;5032417;28;20070;-80
2023/10/24 05:12:22;;;;;;;75.70;26.23;;;;;;;9.70;nan;100188.38;4998174;28;20334;-80
2023/10/24 05:14:48;;;;;;;76.15;27.45;;;;;;;9.71;nan;100182.06;5014929;28;20148;-80
2023/10/24 05:17:14;;;;;;;75.82;27.50;;;;;;;9.70;nan;100188.38;5014370;28;20025;-80
2023/10/24 05:19:41;;;;;;;80.65;26.65;;;;;;;9.70;nan;100180.41;5029934;28;20161;-81
2023/10/24 05:22:07;;;;;;;79.97;26.63;;;;;;;9.73;nan;100178.44;5052426;28;20029;-83
2023/10/24 05:24:32;;;;;;;80.75;25.80;;;;;;;9.74;nan;100169.47;5052129;28;20126;-83
2023/10/24 05:26:57;;;;;;;73.85;26.50;;;;;;;9.73;nan;100176.59;5054430;28;20033;-82
2023/10/24 05:29:23;;;;;;;82.28;27.15;;;;;;;9.73;nan;100181.91;5054896;28;20033;-81
2023/10/24 05:31:48;;;;;;;89.95;28.95;;;;;;;9.73;nan;100167.81;5056920;28;20091;-82
2023/10/24 05:34:13;;;;;;;75.20;26.40;;;;;;;9.74;nan;100161.50;5055626;28;20112;-83
2023/10/24 05:36:39;;;;;;;79.88;27.02;;;;;;;9.76;nan;100154.22;5054754;28;20061;-85
2023/10/24 05:39:04;;;;;;;85.53;26.98;;;;;;;9.74;nan;100148.22;5055370;28;20469;-84
2023/10/24 05:41:30;;;;;;;79.95;26.98;;;;;;;9.75;nan;100152.53;5056603;28;20027;-84
2023/10/24 05:43:55;;;;;;;76.25;27.52;;;;;;;9.75;nan;100164.03;5056396;28;20052;-84
2023/10/24 05:46:20;;;;;;;84.30;28.45;;;;;;;9.77;nan;100166.53;5056065;28;20491;-83
2023/10/24 05:48:46;;;;;;;78.57;27.48;;;;;;;9.74;nan;100164.16;5055680;28;20035;-83
2023/10/24 05:51:22;;;;;;;83.68;27.58;;;;;;;9.75;nan;100164.03;5055236;28;20024;-84
2023/10/24 05:53:47;;;;;;;81.95;28.10;;;;;;;9.76;nan;100172.81;5055467;28;20071;-83
2023/10/24 05:56:13;;;;;;;78.75;28.30;;;;;;;9.77;nan;100175.31;5055369;28;20033;-84
2023/10/24 05:58:38;;;;;;;79.75;28.23;;;;;;;9.80;nan;100163.56;5054913;28;20044;-82
2023/10/24 06:01:04;;;;;;;82.63;29.90;;;;;;;9.79;nan;100161.88;5054515;28;20029;-85
2023/10/24 06:03:29;;;;;;;84.00;29.13;;;;;;;9.78;nan;100161.06;5055006;28;20029;-83
2023/10/24 06:05:55;;;;;;;79.85;28.13;;;;;;;9.79;nan;100157.44;5053347;28;20037;-83
2023/10/24 06:08:20;;;;;;;77.00;29.70;;;;;;;9.80;nan;100152.94;5054921;28;20024;-83
2023/10/24 06:10:56;;;;;;;77.88;29.63;;;;;;;9.81;nan;100155.44;5055039;28;20025;-83
2023/10/24 06:13:22;;;;;;;79.38;30.42;;;;;;;9.81;nan;100159.94;5053371;28;20036;-84
2023/10/24 06:15:47;;;;;;;76.32;27.77;;;;;;;9.82;nan;100151.81;5054574;28;20021;-80
2023/10/24 06:18:13;;;;;;;80.68;29.10;;;;;;;9.86;nan;100158.47;5053019;28;20037;-85
2023/10/24 06:20:38;;;;;;;70.35;28.45;;;;;;;9.86;nan;100169.09;5037419;28;20045;-84
2023/10/24 06:23:05;;;;;;;78.00;29.83;;;;;;;9.88;nan;100176.91;5035442;28;20017;-83
2023/10/24 06:25:45;;;;;;;77.97;28.67;;;;;;;9.88;nan;100174.25;5034995;28;20064;-83
2023/10/24 06:28:10;;;;;;;77.47;28.38;;;;;;;9.87;nan;100173.44;5035343;28;20112;-83
2023/10/24 06:30:35;;;;;;;79.50;29.08;;;;;;;9.91;nan;100189.06;5017378;28;20033;-83
2023/10/24 06:33:02;;;;;;;73.72;29.15;;;;;;;9.93;nan;100176.47;5034541;28;20025;-82
2023/10/24 06:35:28;;;;;;;79.85;29.70;;;;;;;9.92;nan;100182.78;5016835;28;20041;-83
2023/10/24 06:37:53;;;;;;;76.93;29.73;;;;;;;9.93;nan;100176.47;5016186;28;20026;-82
2023/10/24 06:40:19;;;;;;;73.43;29.05;;;;;;;9.95;nan;100175.34;5017986;28;20025;-83
2023/10/24 06:42:45;;;;;;;76.80;29.35;;;;;;;9.95;nan;100185.13;5035140;28;20029;-83
2023/10/24 06:45:11;;;;;;;74.93;29.80;;;;;;;9.98;nan;100188.31;5035732;28;20037;-82
2023/10/24 06:47:37;;;;;;;77.35;29.95;;;;;;;10.00;nan;100182.84;5035318;28;20026;-82
2023/10/24 06:50:02;;;;;;;73.25;28.83;;;;;;;10.02;nan;100189.69;5035154;28;20377;-84
2023/10/24 06:52:28;;;;;;;69.68;29.48;;;;;;;10.01;nan;100182.69;5017899;28;20025;-83
2023/10/24 06:54:53;;;;;;;69.88;29.50;;;;;;;10.04;nan;100195.69;5017334;28;20076;-84
2023/10/24 06:57:18;;;;;;;69.53;29.20;;;;;;;10.05;nan;100199.19;5017375;28;20168;-83
2023/10/24 06:59:44;;;;;;;63.80;28.58;;;;;;;10.07;nan;100191.91;5035055;28;20057;-84
2023/10/24 07:02:09;;;;;;;61.42;28.30;;;;;;;10.09;nan;100197.06;5017372;28;20026;-83
2023/10/24 07:04:35;;;;;;;68.97;29.13;;;;;;;10.11;nan;100205.72;5035066;28;20044;-83
2023/10/24 07:07:00;;;;;;;66.65;28.70;;;;;;;10.10;nan;100199.56;5035047;28;20045;-83
2023/10/24 07:09:25;;;;;;;64.30;28.25;;;;;;;10.14;nan;100200.13;5017647;28;20026;-84
2023/10/24 07:11:51;;;;;;;59.42;25.92;;;;;;;10.15;nan;100202.63;5034884;28;20361;-83
2023/10/24 07:14:16;;;;;;;61.53;26.73;;;;;;;10.15;nan;100196.44;5034613;28;20051;-84
2023/10/24 07:16:42;;;;;;;61.33;26.67;;;;;;;10.16;nan;100200.78;5034770;28;20461;-83
2023/10/24 07:19:07;;;;;;;57.10;26.38;;;;;;;10.16;nan;100195.47;5034675;28;20467;-83
2023/10/24 07:21:32;;;;;;;55.00;25.98;;;;;;;10.17;nan;100200.63;5034802;28;20025;-83
2023/10/24 07:23:58;;;;;;;62.22;25.90;;;;;;;10.20;nan;100188.88;5034636;28;20021;-83
2023/10/24 07:26:23;;;;;;;53.35;26.73;;;;;;;10.18;nan;100194.34;5016678;28;20500;-81
2023/10/24 07:28:49;;;;;;;52.05;25.17;;;;;;;10.19;nan;100190.66;5034215;28;20034;-81
2023/10/24 07:31:15;;;;;;;57.42;24.05;;;;;;;10.22;nan;100194.84;5034301;28;20041;-85
2023/10/24 07:33:41;;;;;;;56.72;24.42;;;;;;;10.17;nan;100195.31;5016223;28;20034;-83
2023/10/24 07:36:08;;;;;;;49.38;24.10;;;;;;;10.21;nan;100195.84;5034459;28;20026;-82
2023/10/24 07:38:33;;;;;;;47.83;24.73;;;;;;;10.22;nan;100190.34;5034291;28;20029;-80
2023/10/24 07:40:59;;;;;;;48.25;23.05;;;;;;;10.21;nan;100204.66;5034132;28;20075;-79
2023/10/24 07:43:26;;;;;;;48.42;23.00;;;;;;;10.25;nan;100197.22;5033969;28;20104;-83
2023/10/24 07:45:56;;;;;;;52.45;23.90;;;;;;;10.23;nan;100196.53;5034625;28;20029;-83
2023/10/24 07:48:23;;;;;;;48.35;24.17;;;;;;;10.25;nan;100199.88;5034073;28;20104;-82
2023/10/24 07:50:54;;;;;;;45.53;23.15;;;;;;;10.22;nan;100197.50;5033793;28;20029;-82
2023/10/24 07:53:20;;;;;;;42.97;22.13;;;;;;;10.24;nan;100195.56;5016759;28;20068;-83
2023/10/24 07:55:46;;;;;;;54.03;23.00;;;;;;;10.21;nan;100194.03;5034431;28;20745;-82
2023/10/24 07:58:12;;;;;;;47.65;22.73;;;;;;;10.20;nan;100196.84;4999692;28;20176;-83
2023/10/24 08:00:37;;;;;;;38.00;21.52;;;;;;;10.17;nan;100197.97;5033945;28;20037;-84
2023/10/24 08:03:02;;;;;;;48.08;21.95;;;;;;;10.17;nan;100202.47;5034133;28;20033;-83
2023/10/24 08:05:28;;;;;;;39.13;21.73;;;;;;;10.17;nan;100194.50;5034074;28;20438;-83
2023/10/24 08:07:53;;;;;;;40.80;21.25;;;;;;;10.20;nan;100196.84;5033860;28;20460;-84
2023/10/24 08:10:19;;;;;;;37.72;22.23;;;;;;;10.19;nan;100192.50;5015898;28;20026;-83
2023/10/24 08:12:44;;;;;;;41.17;21.27;;;;;;;10.22;nan;100206.31;5015898;28;20059;-82
2023/10/24 08:15:10;;;;;;;44.35;22.00;;;;;;;10.23;nan;100186.72;5033488;28;20103;-82
2023/10/24 08:17:35;;;;;;;43.97;21.30;;;;;;;10.28;nan;100183.59;5033342;28;20064;-80
2023/10/24 08:20:04;;;;;;;39.92;21.00;;;;;;;10.32;nan;100184.97;5035237;28;20057;-82
2023/10/24 08:22:29;;;;;;;34.75;19.83;;;;;;;10.28;nan;100183.59;5033555;28;20033;-83
2023/10/24 08:24:55;;;;;;;35.58;20.23;;;;;;;10.27;nan;100192.59;5033751;28;20543;-84
2023/10/24 08:27:20;;;;;;;38.10;20.25;;;;;;;10.31;nan;100198.44;5033182;28;20040;-82
2023/10/24 08:29:45;;;;;;;33.20;19.45;;;;;;;10.35;nan;100198.00;5033619;28;20049;-84
2023/10/24 08:32:11;;;;;;;35.28;20.83;;;;;;;10.37;nan;100193.34;5033568;28;20033;-84
2023/10/24 08:34:37;;;;;;;31.08;19.55;;;;;;;10.39;nan;100203.88;5033675;28;20029;-82
2023/10/24 08:37:05;;;;;;;29.02;18.55;;;;;;;10.45;nan;100195.25;5033518;28;20029;-85
2023/10/24 08:39:30;;;;;;;27.85;17.83;;;;;;;10.47;nan;100189.78;4999384;28;20546;-83
2023/10/24 08:41:59;;;;;;;32.33;19.20;;;;;;;10.57;nan;100183.38;5033611;28;20167;-83
2023/10/24 08:44:26;;;;;;;24.70;16.40;;;;;;;10.61;nan;100193.72;5033208;28;20534;-83
2023/10/24 08:46:53;;;;;;;23.33;15.98;;;;;;;10.60;nan;100195.53;5033335;28;20029;-84
2023/10/24 08:49:18;;;;;;;23.45;15.60;;;;;;;10.69;nan;100194.59;5015689;28;20044;-84
2023/10/24 08:51:45;;;;;;;25.20;15.55;;;;;;;10.73;nan;100185.31;5032794;28;20105;-83
2023/10/24 08:54:11;;;;;;;21.27;15.38;;;;;;;10.82;nan;100190.69;5033003;28;20124;-85
2023/10/24 08:56:38;;;;;;;24.88;15.70;;;;;;;10.93;nan;100193.94;5032925;28;20112;-85
2023/10/24 08:59:08;;;;;;;18.67;13.15;;;;;;;10.92;nan;100200.22;5033405;28;20030;-82
2023/10/24 09:01:35;;;;;;;22.52;14.63;;;;;;;10.97;nan;100207.75;5032213;28;20042;-83
2023/10/24 09:04:02;;;;;;;18.00;12.65;;;;;;;10.89;nan;100210.38;5033043;28;20030;-83
2023/10/24 09:06:27;;;;;;;20.60;12.68;;;;;;;10.86;nan;100218.66;5032993;28;20033;-80
2023/10/24 09:08:52;;;;;;;18.15;12.65;;;;;;;10.82;nan;100225.28;5033084;28;20040;-81
2023/10/24 09:11:18;;;;;;;16.67;11.43;;;;;;;10.73;nan;100208.41;5015350;28;20029;-82
2023/10/24 09:13:44;;;;;;;17.70;12.15;;;;;;;10.77;nan;100204.47;5015241;28;20029;-81
2023/10/24 09:16:10;;;;;;;15.25;10.88;;;;;;;10.74;nan;100215.44;5032860;28;20116;-85
2023/10/24 09:18:40;;;;;;;14.40;11.00;;;;;;;10.76;nan;100213.44;5032902;28;20378;-83
2023/10/24 09:21:07;;;;;;;15.88;10.57;;;;;;;10.78;nan;100216.78;5035437;28;20050;-85
2023/10/24 09:23:35;;;;;;;16.23;11.27;;;;;;;10.76;nan;100203.66;5015674;28;20366;-85
2023/10/24 09:26:11;;;;;;;16.95;11.13;;;;;;;10.81;nan;100211.16;5032964;28;20135;-85
2023/10/24 09:28:36;;;;;;;19.05;11.40;;;;;;;10.85;nan;100217.00;5015638;28;20029;-83
2023/10/24 09:31:04;;;;;;;17.42;11.07;;;;;;;10.89;nan;100218.34;5033305;28;20041;-85
2023/10/24 09:33:29;;;;;;;15.93;10.90;;;;;;;10.83;nan;100214.47;5032924;28;20032;-85
2023/10/24 09:35:56;;;;;;;15.98;10.57;;;;;;;10.91;nan;100221.69;5032925;28;20105;-86
2023/10/24 09:38:23;;;;;;;16.48;10.88;;;;;;;10.89;nan;100221.84;5032731;28;20179;-86
2023/10/24 09:40:49;;;;;;;14.82;10.95;;;;;;;10.89;nan;100215.69;5033199;28;20117;-82
2023/10/24 09:43:23;;;;;;;18.73;11.65;;;;;;;10.88;nan;100220.19;5032995;28;20500;-86
2023/10/24 09:45:52;;;;;;;19.08;13.20;;;;;;;10.88;nan;100219.34;5032949;28;20021;-85
2023/10/24 09:48:19;;;;;;;17.58;12.30;;;;;;;10.87;nan;100213.19;5032544;28;20038;-82
2023/10/24 09:50:44;;;;;;;18.48;12.05;;;;;;;10.89;nan;100213.84;5032391;28;20037;-86
2023/10/24 09:53:11;;;;;;;20.63;12.80;;;;;;;10.97;nan;100206.91;5032437;28;20026;-85
2023/10/24 09:55:40;;;;;;;18.75;12.07;;;;;;;11.11;nan;100209.00;5015247;28;20033;-86
2023/10/24 09:58:07;;;;;;;17.40;11.77;;;;;;;11.14;nan;100211.34;5032776;28;20037;-84
2023/10/24 10:00:33;;;;;;;16.85;11.57;;;;;;;11.13;nan;100215.00;5032644;28;20029;-87
2023/10/24 10:02:59;;;;;;;15.35;11.00;;;;;;;11.18;nan;100215.38;5032590;28;20519;-87
2023/10/24 10:05:29;;;;;;;16.33;11.30;;;;;;;11.12;nan;100223.97;5034497;28;20037;-84
2023/10/24 10:07:56;;;;;;;16.95;11.07;;;;;;;11.10;nan;100213.47;5035297;28;20147;-84
2023/10/24 10:10:24;;;;;;;18.17;10.88;;;;;;;11.09;nan;100211.84;5034549;28;20171;-83
2023/10/24 10:12:53;;;;;;;17.70;10.73;;;;;;;11.08;nan;100217.31;5036746;28;20055;-83
2023/10/24 10:15:49;;;;;;;16.17;10.73;;;;;;;11.09;nan;100216.31;5037918;28;20087;-83
2023/10/24 10:18:26;;;;;;;19.10;12.10;;;;;;;11.11;nan;100211.66;5020191;28;20039;-86
2023/10/24 10:21:05;;;;;;;17.20;12.25;;;;;;;11.05;nan;100220.28;5036739;28;20050;-84
2023/10/24 10:23:34;;;;;;;18.75;12.25;;;;;;;11.10;nan;100218.81;5036277;28;20428;-82
2023/10/24 10:26:06;;;;;;;15.63;12.40;;;;;;;11.09;nan;100213.63;5035959;28;20033;-82
2023/10/24 10:28:59;;;;;;;21.15;13.02;;;;;;;11.04;nan;100223.94;5036677;28;20033;-80
2023/10/24 10:31:46;;;;;;;18.35;13.25;;;;;;;11.07;nan;100216.47;5036058;28;20033;-85
2023/10/24 10:34:12;;;;;;;18.40;12.60;;;;;;;11.06;nan;100211.28;5036217;28;20025;-81
2023/10/24 10:36:39;;;;;;;17.73;12.90;;;;;;;11.08;nan;100212.81;5018190;28;20187;-81
2023/10/24 10:39:10;;;;;;;21.02;13.40;;;;;;;11.13;nan;100212.34;5035649;28;20033;-79
2023/10/24 10:41:37;;;;;;;17.63;13.00;;;;;;;11.17;nan;100208.38;5035650;28;20037;-81
2023/10/24 10:44:39;;;;;;;14.23;11.35;;;;;;;11.20;nan;100210.72;5035270;28;20393;-81
2023/10/24 10:47:07;;;;;;;15.63;11.13;;;;;;;11.23;nan;100204.25;5035754;28;20037;-83
2023/10/24 10:49:50;;;;;;;16.55;10.80;;;;;;;11.25;nan;100205.75;5035101;28;20183;-82
2023/10/24 10:52:37;;;;;;;16.13;11.05;;;;;;;11.24;nan;100211.22;5035707;28;20040;-81
2023/10/24 10:55:23;;;;;;;14.43;9.98;;;;;;;11.26;nan;100201.25;5035441;28;20025;-82
2023/10/24 10:58:03;;;;;;;13.02;8.43;;;;;;;11.22;nan;100203.41;5036058;28;20021;-82
2023/10/24 11:00:37;;;;;;;14.85;7.63;;;;;;;11.14;nan;100200.72;5035255;28;20068;-85
2023/10/24 11:03:43;;;;;;;12.23;6.90;;;;;;;11.13;nan;100212.34;5017773;28;20026;-80
2023/10/24 11:06:09;;;;;;;7.53;6.13;;;;;;;11.04;nan;100203.47;5033413;28;20120;-80
2023/10/24 11:08:35;;;;;;;5.82;5.18;;;;;;;11.03;nan;100216.94;5034989;28;20029;-82
2023/10/24 11:11:00;;;;;;;7.80;4.95;;;;;;;11.01;nan;100203.78;5017786;28;20462;-81
2023/10/24 11:13:46;;;;;;;7.78;4.80;;;;;;;10.96;nan;100211.41;5034718;28;20025;-81
2023/10/24 11:16:13;;;;;;;9.15;4.85;;;;;;;10.78;nan;100206.16;5034549;28;20481;-85
2023/10/24 11:18:40;;;;;;;6.70;4.80;;;;;;;10.72;nan;100206.78;5016635;28;20025;-83
2023/10/24 11:21:08;;;;;;;6.78;4.80;;;;;;;10.69;nan;100202.59;5036879;28;20057;-79
2023/10/24 11:23:33;;;;;;;6.45;5.20;;;;;;;10.59;nan;100210.66;5034046;28;20434;-79
2023/10/24 11:26:00;;;;;;;8.85;5.15;;;;;;;10.58;nan;100201.03;5034737;28;20079;-78
2023/10/24 11:28:27;;;;;;;8.10;5.70;;;;;;;10.54;nan;100206.81;5034297;28;20037;-79